createdAt,value
2023-05-10T00:01:34.010Z,89.58
2023-05-10T00:04:01.970Z,90.85
2023-05-10T00:06:29.897Z,89.63
2023-05-10T00:08:58.131Z,90.22
2023-05-10T00:11:25.898Z,89.94
2023-05-10T00:13:54.211Z,90.00
2023-05-10T00:16:21.976Z,89.98
2023-05-10T00:18:51.621Z,90.38
2023-05-10T00:21:19.701Z,89.61
2023-05-10T00:23:47.617Z,89.21
2023-05-10T00:26:15.927Z,89.35
2023-05-10T00:28:43.632Z,89.10
2023-05-10T00:31:11.534Z,88.03
2023-05-10T00:33:39.247Z,89.00
2023-05-10T00:36:09.233Z,89.20
2023-05-10T00:38:37.301Z,89.44
2023-05-10T00:41:05.544Z,88.94
2023-05-10T00:43:33.212Z,89.28
2023-05-10T00:46:01.435Z,89.19
2023-05-10T00:48:31.666Z,89.06
2023-05-10T00:50:59.636Z,89.08
2023-05-10T00:53:29.109Z,89.02
2023-05-10T00:55:57.596Z,89.11
2023-05-10T00:58:29.077Z,89.34
2023-05-10T01:00:58.169Z,89.32
2023-05-10T01:03:27.115Z,89.08
2023-05-10T01:05:54.819Z,89.12
2023-05-10T01:08:23.107Z,89.09
2023-05-10T01:10:53.499Z,88.87
2023-05-10T01:13:38.244Z,88.83
2023-05-10T01:16:07.713Z,89.08
2023-05-10T01:18:38.916Z,88.71
2023-05-10T01:21:19.615Z,88.44
2023-05-10T01:24:26.120Z,89.24
2023-05-10T01:27:19.908Z,89.27
2023-05-10T01:30:21.898Z,89.53
2023-05-10T01:33:00.208Z,88.40
2023-05-10T01:35:37.505Z,88.53
2023-05-10T01:38:14.889Z,88.51
2023-05-10T01:40:50.542Z,88.96
2023-05-10T01:43:24.614Z,89.27
2023-05-10T01:46:00.977Z,88.37
2023-05-10T01:48:32.451Z,88.43
2023-05-10T01:51:00.598Z,88.18
2023-05-10T01:53:30.204Z,88.29
2023-05-10T01:55:58.782Z,88.60
2023-05-10T01:58:31.391Z,88.31
2023-05-10T02:01:02.824Z,88.55
2023-05-10T02:03:34.529Z,87.83
2023-05-10T02:06:03.513Z,88.14
2023-05-10T02:08:32.964Z,88.69
2023-05-10T02:11:02.062Z,88.25
2023-05-10T02:13:33.766Z,88.29
2023-05-10T02:16:02.658Z,88.36
2023-05-10T02:18:32.233Z,87.83
2023-05-10T02:21:01.148Z,88.09
2023-05-10T02:23:30.345Z,88.28
2023-05-10T02:26:00.318Z,88.43
2023-05-10T02:28:28.701Z,88.31
2023-05-10T02:30:57.233Z,87.52
2023-05-10T02:33:26.340Z,88.22
2023-05-10T02:35:56.892Z,87.59
2023-05-10T02:38:26.201Z,89.20
2023-05-10T02:40:55.979Z,89.17
2023-05-10T02:43:25.940Z,87.57
2023-05-10T02:45:54.030Z,87.21
2023-05-10T02:48:21.746Z,86.60
2023-05-10T02:50:52.781Z,87.03
2023-05-10T02:53:25.948Z,87.22
2023-05-10T02:55:59.334Z,88.02
2023-05-10T02:58:27.688Z,88.33
2023-05-10T03:00:55.801Z,87.80
2023-05-10T03:03:23.864Z,87.75
2023-05-10T03:05:51.500Z,87.96
2023-05-10T03:08:19.401Z,87.95
2023-05-10T03:10:57.855Z,88.06
2023-05-10T03:13:32.367Z,88.40
2023-05-10T03:16:06.678Z,87.95
2023-05-10T03:18:43.965Z,88.65
2023-05-10T03:21:14.380Z,87.81
2023-05-10T03:23:45.768Z,87.33
2023-05-10T03:26:22.976Z,87.43
2023-05-10T03:28:51.874Z,87.61
2023-05-10T03:31:20.518Z,87.45
2023-05-10T03:33:49.829Z,87.32
2023-05-10T03:36:17.742Z,87.04
2023-05-10T03:38:45.521Z,87.47
2023-05-10T03:41:13.220Z,87.82
2023-05-10T03:43:42.529Z,88.83
2023-05-10T03:46:10.865Z,88.21
2023-05-10T03:48:38.925Z,88.55
2023-05-10T03:51:06.723Z,88.93
2023-05-10T03:53:34.426Z,89.29
2023-05-10T03:56:02.254Z,89.73
2023-05-10T03:58:30.055Z,89.93
2023-05-10T04:00:59.187Z,90.07
2023-05-10T04:03:27.705Z,90.25
2023-05-10T04:06:01.501Z,89.14
2023-05-10T04:08:29.422Z,88.69
2023-05-10T04:10:57.217Z,88.76
2023-05-10T04:13:25.094Z,88.38
2023-05-10T04:15:52.971Z,88.92
2023-05-10T04:18:22.029Z,88.54
2023-05-10T04:20:49.781Z,88.27
2023-05-10T04:23:17.897Z,88.43
2023-05-10T04:25:45.779Z,88.01
2023-05-10T04:28:13.587Z,87.93
2023-05-10T04:30:41.719Z,87.89
2023-05-10T04:33:09.655Z,87.38
2023-05-10T04:35:39.827Z,87.51
2023-05-10T04:38:07.638Z,87.76
2023-05-10T04:40:35.617Z,87.75
2023-05-10T04:43:03.716Z,87.67
2023-05-10T04:45:31.814Z,87.62
2023-05-10T04:47:59.475Z,87.71
2023-05-10T04:50:27.191Z,87.79
2023-05-10T04:52:56.315Z,87.08
2023-05-10T04:55:24.109Z,86.63
2023-05-10T04:57:51.858Z,87.43
2023-05-10T05:00:20.510Z,86.43
2023-05-10T05:02:48.645Z,87.22
2023-05-10T05:05:16.627Z,87.62
2023-05-10T05:07:44.256Z,87.48
2023-05-10T05:10:13.608Z,86.61
2023-05-10T05:12:41.697Z,86.18
2023-05-10T05:15:10.884Z,86.20
2023-05-10T05:17:38.799Z,84.58
2023-05-10T05:20:08.104Z,84.16
2023-05-10T05:22:35.834Z,84.08
2023-05-10T05:25:04.518Z,83.87
2023-05-10T05:27:34.092Z,85.23
2023-05-10T05:30:01.789Z,84.51
2023-05-10T05:32:29.911Z,83.68
2023-05-10T05:34:57.606Z,83.29
2023-05-10T05:37:25.660Z,82.93
2023-05-10T05:39:53.569Z,81.29
2023-05-10T05:42:21.519Z,83.33
2023-05-10T05:44:50.692Z,81.72
2023-05-10T05:47:18.498Z,82.01
2023-05-10T05:49:47.316Z,82.78
2023-05-10T05:52:15.475Z,82.79
2023-05-10T05:54:43.257Z,83.06
2023-05-10T05:57:11.140Z,82.04
2023-05-10T05:59:43.015Z,82.59
2023-05-10T06:02:12.550Z,82.94
2023-05-10T06:04:41.583Z,81.05
2023-05-10T06:07:12.541Z,79.89
2023-05-10T06:09:40.232Z,79.70
2023-05-10T06:12:10.815Z,79.21
2023-05-10T06:14:38.653Z,78.40
2023-05-10T06:17:07.708Z,77.94
2023-05-10T06:19:37.720Z,77.33
2023-05-10T06:22:05.411Z,77.55
2023-05-10T06:24:33.329Z,77.17
2023-05-10T06:27:01.625Z,78.46
2023-05-10T06:29:29.427Z,77.53
2023-05-10T06:31:57.090Z,75.83
2023-05-10T06:34:24.915Z,77.16
2023-05-10T06:36:54.063Z,77.14
2023-05-10T06:39:22.230Z,77.46
2023-05-10T06:41:49.968Z,77.08
2023-05-10T06:44:17.672Z,75.37
2023-05-10T06:46:45.559Z,75.05
2023-05-10T06:49:13.255Z,74.83
2023-05-10T06:51:41.089Z,74.82
2023-05-10T06:54:10.371Z,73.03
2023-05-10T06:56:38.476Z,72.49
2023-05-10T06:59:06.222Z,71.49
2023-05-10T07:01:34.074Z,71.32
2023-05-10T07:04:01.698Z,70.11
2023-05-10T07:06:33.869Z,71.75
2023-05-10T07:09:02.168Z,70.93
2023-05-10T07:11:31.564Z,70.63
2023-05-10T07:13:59.660Z,69.93
2023-05-10T07:16:28.013Z,69.72
2023-05-10T07:18:56.204Z,69.28
2023-05-10T07:21:25.068Z,69.60
2023-05-10T07:23:52.810Z,68.39
2023-05-10T07:26:20.623Z,69.60
2023-05-10T07:28:49.633Z,69.69
2023-05-10T07:31:17.367Z,69.54
2023-05-10T07:33:45.350Z,70.96
2023-05-10T07:36:13.792Z,70.25
2023-05-10T07:38:41.822Z,70.46
2023-05-10T07:41:09.551Z,70.42
2023-05-10T07:43:37.182Z,71.12
2023-05-10T07:46:06.630Z,71.52
2023-05-10T07:48:34.348Z,71.64
2023-05-10T07:51:01.987Z,71.86
2023-05-10T07:53:29.694Z,71.95
2023-05-10T07:56:00.185Z,71.23
2023-05-10T07:58:28.161Z,70.97
2023-05-10T08:00:55.980Z,70.90
2023-05-10T08:03:25.117Z,71.88
2023-05-10T08:05:52.926Z,71.87
2023-05-10T08:08:22.542Z,70.76
2023-05-10T08:10:50.208Z,71.21
2023-05-10T08:13:17.821Z,70.24
2023-05-10T08:18:48.808Z,70.27
2023-05-10T08:21:17.416Z,71.42
2023-05-10T08:23:45.642Z,71.94
2023-05-10T08:26:13.588Z,70.48
2023-05-10T08:28:41.519Z,69.67
2023-05-10T08:31:12.049Z,68.71
2023-05-10T08:34:20.480Z,67.11
2023-05-10T08:36:29.336Z,65.69
2023-05-10T08:38:57.235Z,65.18
2023-05-10T08:41:26.745Z,64.77
2023-05-10T08:43:55.816Z,61.54
2023-05-10T08:46:24.985Z,60.22
2023-05-10T08:48:53.622Z,59.73
2023-05-10T08:51:29.183Z,61.46
2023-05-10T08:53:58.971Z,62.31
2023-05-10T08:56:26.881Z,62.63
2023-05-10T08:58:54.834Z,63.38
2023-05-10T09:01:24.231Z,64.39
2023-05-10T09:03:53.314Z,67.14
2023-05-10T09:06:21.272Z,67.20
2023-05-10T09:08:50.110Z,67.60
2023-05-10T09:11:19.759Z,66.92
2023-05-10T09:13:50.269Z,66.70
2023-05-10T09:16:21.579Z,66.00
2023-05-10T09:18:50.827Z,65.30
2023-05-10T09:21:19.099Z,64.22
2023-05-10T09:23:48.703Z,64.40
2023-05-10T09:26:17.078Z,64.51
2023-05-10T09:28:57.116Z,65.27
2023-05-10T09:31:26.672Z,63.80
2023-05-10T09:33:59.333Z,63.84
2023-05-10T09:36:27.186Z,63.08
2023-05-10T09:38:56.285Z,63.52
2023-05-10T09:41:25.993Z,65.29
2023-05-10T09:43:58.048Z,64.51
2023-05-10T09:46:26.020Z,63.96
2023-05-10T09:48:54.236Z,65.06
2023-05-10T09:51:22.715Z,63.56
2023-05-10T09:54:10.575Z,63.97
2023-05-10T09:56:41.106Z,63.30
2023-05-10T09:59:12.562Z,61.84
2023-05-10T10:01:41.493Z,60.72
2023-05-10T10:04:11.899Z,60.53
2023-05-10T10:06:41.578Z,59.21
2023-05-10T10:09:10.189Z,59.10
2023-05-10T10:11:40.854Z,57.50
2023-05-10T10:14:09.956Z,58.81
2023-05-10T10:16:45.796Z,57.67
2023-05-10T10:19:20.996Z,57.86
2023-05-10T10:21:48.643Z,59.21
2023-05-10T10:24:16.765Z,57.79
2023-05-10T10:26:46.431Z,59.56
2023-05-10T10:29:24.167Z,62.22
2023-05-10T10:32:02.554Z,61.64
2023-05-10T10:34:32.291Z,61.21
2023-05-10T10:37:07.531Z,61.91
2023-05-10T10:39:37.959Z,61.56
2023-05-10T10:42:06.417Z,60.42
2023-05-10T10:44:41.459Z,60.48
2023-05-10T10:47:25.677Z,59.65
2023-05-10T10:50:04.437Z,59.15
2023-05-10T10:52:36.604Z,58.60
2023-05-10T10:55:07.590Z,58.48
2023-05-10T10:57:44.728Z,57.20
2023-05-10T11:00:41.264Z,58.43
2023-05-10T11:03:14.733Z,57.54
2023-05-10T11:05:44.758Z,58.59
2023-05-10T11:08:18.942Z,57.99
2023-05-10T11:10:55.808Z,57.58
2023-05-10T11:13:31.398Z,56.90
2023-05-10T11:16:01.541Z,58.17
2023-05-10T11:18:31.273Z,57.97
2023-05-10T11:21:01.018Z,57.84
2023-05-10T11:23:33.924Z,56.87
2023-05-10T11:26:02.637Z,57.30
2023-05-10T11:28:30.317Z,57.00
2023-05-10T11:31:00.293Z,57.05
2023-05-10T11:33:28.265Z,56.71
2023-05-10T11:35:56.507Z,56.60
2023-05-10T11:38:24.348Z,56.39
2023-05-10T11:40:54.344Z,55.68
2023-05-10T11:43:29.384Z,55.97
2023-05-10T11:45:57.848Z,55.00
2023-05-10T11:48:26.949Z,55.40
2023-05-10T11:50:58.139Z,56.47
2023-05-10T11:53:28.130Z,57.41
2023-05-10T11:55:56.107Z,58.16
2023-05-10T11:58:24.405Z,58.23
2023-05-10T12:00:52.630Z,59.12
2023-05-10T12:03:20.711Z,58.81
2023-05-10T12:05:50.261Z,59.17
2023-05-10T12:08:22.967Z,58.14
2023-05-10T12:10:50.914Z,58.05
2023-05-10T12:13:19.834Z,56.89
2023-05-10T12:15:47.939Z,57.29
2023-05-10T12:18:16.580Z,57.07
2023-05-10T12:20:44.559Z,55.57
2023-05-10T12:23:15.464Z,55.00
2023-05-10T12:25:43.457Z,54.21
2023-05-10T12:28:11.605Z,53.30
2023-05-10T12:30:40.149Z,51.22
2023-05-10T12:33:11.229Z,51.64
2023-05-10T12:35:51.110Z,52.25
2023-05-10T12:38:31.877Z,51.77
2023-05-10T12:41:00.756Z,51.27
2023-05-10T12:43:29.686Z,50.83
2023-05-10T12:45:58.021Z,50.37
2023-05-10T12:48:25.972Z,50.11
2023-05-10T12:50:53.692Z,49.70
2023-05-10T12:53:21.556Z,49.03
2023-05-10T12:55:50.614Z,49.79
2023-05-10T12:58:34.350Z,50.42
2023-05-10T13:01:03.849Z,49.95
2023-05-10T13:03:32.035Z,49.94
2023-05-10T13:06:00.965Z,50.31
2023-05-10T13:08:30.968Z,49.80
2023-05-10T13:11:00.075Z,49.21
2023-05-10T13:13:28.228Z,48.64
2023-05-10T13:15:56.251Z,49.05
2023-05-10T13:18:25.462Z,48.60
2023-05-10T13:20:53.563Z,47.63
2023-05-10T13:23:21.337Z,47.40
2023-05-10T13:25:49.374Z,47.28
2023-05-10T13:28:18.582Z,47.95
2023-05-10T13:30:46.586Z,47.52
2023-05-10T13:33:14.836Z,47.10
2023-05-10T13:35:42.747Z,47.17
2023-05-10T13:38:10.782Z,47.13
2023-05-10T13:40:38.657Z,47.07
2023-05-10T13:43:06.470Z,46.73
2023-05-10T13:45:36.037Z,46.12
2023-05-10T13:48:03.983Z,45.25
2023-05-10T13:50:32.151Z,44.68
2023-05-10T13:53:00.232Z,45.38
2023-05-10T13:55:28.148Z,46.15
2023-05-10T13:57:56.200Z,46.59
2023-05-10T14:00:23.921Z,45.13
2023-05-10T14:02:53.632Z,43.33
2023-05-10T14:05:25.525Z,43.02
2023-05-10T14:07:54.825Z,43.55
2023-05-10T14:10:22.732Z,43.80
2023-05-10T14:12:50.564Z,43.28
2023-05-10T14:15:19.263Z,42.32
2023-05-10T14:17:47.275Z,41.96
2023-05-10T14:20:16.683Z,40.89
2023-05-10T14:22:44.680Z,39.88
2023-05-10T14:25:12.757Z,38.35
2023-05-10T14:27:40.485Z,39.16
2023-05-10T14:30:09.660Z,39.34
2023-05-10T14:32:39.005Z,38.44
2023-05-10T14:35:12.931Z,39.13
2023-05-10T14:37:42.774Z,39.03
2023-05-10T14:40:11.482Z,38.82
2023-05-10T14:42:39.442Z,39.51
2023-05-10T14:45:09.778Z,39.21
2023-05-10T14:47:37.710Z,39.87
2023-05-10T14:50:06.164Z,40.07
2023-05-10T14:52:34.492Z,39.61
2023-05-10T14:55:04.360Z,39.21
2023-05-10T14:57:32.320Z,39.14
2023-05-10T15:00:00.169Z,39.47
2023-05-10T15:02:28.394Z,38.54
2023-05-10T15:04:56.778Z,38.52
2023-05-10T15:07:25.021Z,38.61
2023-05-10T15:09:53.431Z,39.97
2023-05-10T15:12:22.621Z,39.14
2023-05-10T15:14:50.549Z,38.36
2023-05-10T15:17:18.572Z,37.97
2023-05-10T15:19:46.374Z,37.60
2023-05-10T15:22:14.100Z,39.48
2023-05-10T15:24:42.251Z,39.29
2023-05-10T15:27:10.000Z,38.54
2023-05-10T15:29:39.205Z,39.88
2023-05-10T15:32:07.178Z,38.96
2023-05-10T15:34:35.777Z,39.46
2023-05-10T15:37:05.041Z,39.40
2023-05-10T15:39:32.895Z,39.01
2023-05-10T15:42:00.719Z,39.70
2023-05-10T15:44:28.576Z,40.02
2023-05-10T15:46:58.175Z,40.49
2023-05-10T15:49:26.006Z,40.39
2023-05-10T15:51:53.736Z,40.09
2023-05-10T15:54:21.476Z,41.01
2023-05-10T15:56:49.525Z,40.66
2023-05-10T15:59:17.196Z,41.04
2023-05-10T16:01:45.073Z,40.82
2023-05-10T16:04:14.696Z,41.17
2023-05-10T16:06:42.719Z,40.19
2023-05-10T16:09:10.646Z,40.57
2023-05-10T16:11:38.879Z,40.56
2023-05-10T16:14:07.234Z,42.06
2023-05-10T16:16:35.751Z,41.64
2023-05-10T16:19:04.418Z,43.11
2023-05-10T16:21:33.752Z,42.09
2023-05-10T16:24:02.030Z,41.39
2023-05-10T16:26:29.857Z,41.34
2023-05-10T16:28:57.696Z,42.47
2023-05-10T16:31:25.558Z,41.99
2023-05-10T16:33:53.411Z,42.67
2023-05-10T16:36:21.284Z,43.50
2023-05-10T16:38:50.691Z,42.70
2023-05-10T16:41:18.423Z,42.33
2023-05-10T16:43:47.032Z,42.49
2023-05-10T16:46:14.845Z,42.67
2023-05-10T16:48:43.051Z,42.93
2023-05-10T16:51:11.305Z,42.45
2023-05-10T16:53:39.045Z,44.05
2023-05-10T16:56:08.554Z,43.95
2023-05-10T16:58:36.412Z,44.28
2023-05-10T17:01:04.298Z,44.66
2023-05-10T17:03:32.057Z,44.51
2023-05-10T17:05:59.985Z,44.72
2023-05-10T17:08:28.198Z,44.55
2023-05-10T17:10:56.848Z,44.35
2023-05-10T17:13:26.199Z,44.20
2023-05-10T17:15:54.165Z,44.18
2023-05-10T17:18:22.303Z,43.74
2023-05-10T17:20:51.068Z,43.60
2023-05-10T17:23:19.359Z,43.05
2023-05-10T17:25:47.117Z,43.01
2023-05-10T17:28:14.812Z,43.17
2023-05-10T17:30:47.701Z,43.45
2023-05-10T17:33:15.674Z,44.12
2023-05-10T17:35:46.376Z,44.56
2023-05-10T17:38:14.349Z,44.55
2023-05-10T17:40:42.530Z,44.60
2023-05-10T17:43:11.671Z,44.87
2023-05-10T17:45:39.592Z,45.53
2023-05-10T17:48:11.462Z,46.11
2023-05-10T17:50:39.379Z,45.76
2023-05-10T17:53:07.272Z,45.30
2023-05-10T17:55:35.408Z,45.75
2023-05-10T17:58:03.058Z,45.65
2023-05-10T18:00:31.024Z,45.45
2023-05-10T18:02:58.881Z,46.19
2023-05-10T18:05:28.355Z,46.12
2023-05-10T18:08:08.914Z,45.85
2023-05-10T18:10:50.876Z,46.82
2023-05-10T18:13:30.149Z,47.67
2023-05-10T18:15:58.352Z,48.48
2023-05-10T18:19:04.855Z,49.16
2023-05-10T18:21:34.906Z,49.33
2023-05-10T18:24:03.876Z,49.70
2023-05-10T18:26:38.116Z,50.00
2023-05-10T18:29:10.749Z,50.26
2023-05-10T18:31:43.249Z,50.65
2023-05-10T18:34:17.485Z,50.68
2023-05-10T18:36:47.870Z,50.03
2023-05-10T18:39:18.188Z,49.70
2023-05-10T18:41:47.855Z,49.59
2023-05-10T18:44:17.224Z,50.24
2023-05-10T18:46:45.373Z,50.47
2023-05-10T18:49:13.590Z,50.85
2023-05-10T18:51:41.895Z,51.83
2023-05-10T18:54:11.675Z,52.44
2023-05-10T18:56:44.582Z,52.57
2023-05-10T18:59:13.708Z,52.45
2023-05-10T19:01:43.160Z,53.92
2023-05-10T19:04:13.938Z,53.18
2023-05-10T19:06:42.391Z,52.63
2023-05-10T19:09:12.084Z,51.80
2023-05-10T19:11:43.670Z,51.54
2023-05-10T19:14:11.823Z,51.07
2023-05-10T19:16:41.951Z,51.14
2023-05-10T19:19:10.321Z,50.88
2023-05-10T19:21:39.283Z,51.10
2023-05-10T19:24:08.341Z,51.71
2023-05-10T19:26:37.999Z,51.36
2023-05-10T19:29:06.120Z,51.60
2023-05-10T19:31:34.858Z,52.19
2023-05-10T19:34:05.371Z,52.13
2023-05-10T19:36:34.336Z,52.96
2023-05-10T19:39:02.413Z,52.89
2023-05-10T19:41:30.137Z,53.34
2023-05-10T19:43:59.929Z,53.47
2023-05-10T19:46:28.014Z,53.92
2023-05-10T19:49:00.886Z,54.39
2023-05-10T19:51:28.657Z,54.56
2023-05-10T19:53:56.699Z,55.06
2023-05-10T19:56:24.474Z,55.24
2023-05-10T19:58:52.241Z,55.91
2023-05-10T20:01:21.525Z,56.36
2023-05-10T20:03:49.367Z,56.48
2023-05-10T20:06:17.313Z,57.34
2023-05-10T20:08:45.119Z,58.02
2023-05-10T20:11:13.207Z,57.86
2023-05-10T20:13:41.207Z,58.43
2023-05-10T20:16:09.103Z,58.88
2023-05-10T20:18:38.495Z,59.44
2023-05-10T20:21:06.462Z,59.79
2023-05-10T20:23:34.530Z,60.23
2023-05-10T20:26:02.734Z,60.58
2023-05-10T20:28:30.811Z,61.27
2023-05-10T20:30:58.957Z,61.21
2023-05-10T20:33:26.818Z,61.79
2023-05-10T20:35:55.951Z,62.74
2023-05-10T20:38:23.687Z,62.19
2023-05-10T20:40:51.844Z,61.47
2023-05-10T20:43:21.349Z,61.79
2023-05-10T20:45:49.217Z,62.20
2023-05-10T20:48:17.583Z,62.45
2023-05-10T20:50:45.382Z,62.33
2023-05-10T20:53:15.363Z,62.90
2023-05-10T20:55:43.121Z,62.30
2023-05-10T20:58:11.011Z,62.54
2023-05-10T21:00:38.753Z,62.94
2023-05-10T21:03:06.680Z,62.81
2023-05-10T21:05:34.793Z,63.32
2023-05-10T21:08:02.744Z,63.37
2023-05-10T21:10:31.851Z,64.11
2023-05-10T21:12:59.873Z,64.74
2023-05-10T21:15:27.847Z,64.97
2023-05-10T21:17:55.722Z,65.16
2023-05-10T21:20:24.101Z,65.80
2023-05-10T21:22:52.034Z,67.09
2023-05-10T21:25:19.938Z,67.58
2023-05-10T21:27:49.071Z,67.58
2023-05-10T21:30:17.104Z,67.78
2023-05-10T21:32:45.005Z,68.62
2023-05-10T21:35:12.853Z,68.90
2023-05-10T21:37:40.802Z,69.29
2023-05-10T21:40:09.426Z,69.46
2023-05-10T21:42:37.163Z,69.38
2023-05-10T21:45:07.412Z,69.93
2023-05-10T21:47:35.408Z,70.71
2023-05-10T21:50:03.572Z,70.80
2023-05-10T21:52:31.352Z,71.38
2023-05-10T21:54:59.290Z,72.12
2023-05-10T21:57:27.090Z,72.00
2023-05-10T21:59:54.852Z,72.40
2023-05-10T22:02:24.528Z,72.72
2023-05-10T22:04:52.662Z,73.37
2023-05-10T22:07:20.812Z,73.04
2023-05-10T22:09:48.590Z,73.52
2023-05-10T22:12:16.457Z,73.59
2023-05-10T22:14:44.261Z,73.56
2023-05-10T22:17:12.879Z,73.07
2023-05-10T22:19:42.121Z,72.80
2023-05-10T22:22:09.910Z,72.51
2023-05-10T22:24:38.014Z,72.64
2023-05-10T22:27:06.963Z,72.85
2023-05-10T22:29:34.883Z,72.16
2023-05-10T22:32:05.830Z,73.33
2023-05-10T22:34:33.626Z,72.61
2023-05-10T22:37:03.504Z,72.76
2023-05-10T22:39:31.622Z,73.00
2023-05-10T22:41:59.514Z,73.05
2023-05-10T22:44:27.292Z,73.33
2023-05-10T22:46:55.065Z,73.37
2023-05-10T22:49:22.928Z,73.59
2023-05-10T22:51:50.652Z,73.47
2023-05-10T22:54:19.815Z,73.66
2023-05-10T22:56:47.662Z,73.64
2023-05-10T22:59:15.876Z,73.42
2023-05-10T23:01:43.928Z,73.74
2023-05-10T23:04:11.823Z,74.18
2023-05-10T23:06:39.671Z,73.60
2023-05-10T23:09:07.536Z,74.05
2023-05-10T23:11:36.768Z,74.33
2023-05-10T23:14:04.589Z,74.26
2023-05-10T23:16:32.318Z,74.68
2023-05-10T23:19:00.273Z,75.16
2023-05-10T23:21:30.623Z,75.25
2023-05-10T23:23:59.865Z,75.48
2023-05-10T23:26:27.711Z,75.85
2023-05-10T23:28:56.779Z,75.05
2023-05-10T23:31:24.475Z,75.13
2023-05-10T23:33:52.320Z,75.60
2023-05-10T23:36:20.374Z,75.42
2023-05-10T23:38:48.363Z,75.30
2023-05-10T23:41:16.138Z,75.27
2023-05-10T23:43:44.301Z,74.80
2023-05-10T23:46:13.580Z,74.65
2023-05-10T23:48:41.877Z,74.90
2023-05-10T23:51:09.654Z,74.81
2023-05-10T23:53:37.974Z,74.78
2023-05-10T23:56:06.635Z,74.84
2023-05-10T23:58:34.501Z,74.85
